sensor_id;sensor_type;location;lat;lon;timestamp;noise_LAeq;noise_LA_min;noise_LA_max;noise_LA01;noise_LA95
45651;Laerm;31365;48.858;8.530;2024-01-30T00:02:26;40.73;35.94;47.24;;
45651;Laerm;31365;48.858;8.530;2024-01-30T00:04:54;39.84;35.04;42.59;;
45651;Laerm;31365;48.858;8.530;2024-01-30T00:07:23;53.97;34.31;73.90;;
45651;Laerm;31365;48.858;8.530;2024-01-30T00:09:51;39.69;33.90;42.29;;
45651;Laerm;31365;48.858;8.530;2024-01-30T00:12:19;39.67;34.69;43.34;;
45651;Laerm;31365;48.858;8.530;2024-01-30T00:14:48;39.97;35.36;43.99;;
45651;Laerm;31365;48.858;8.530;2024-01-30T00:17:20;39.85;35.59;43.77;;
45651;Laerm;31365;48.858;8.530;2024-01-30T00:19:50;39.77;35.36;42.71;;
45651;Laerm;31365;48.858;8.530;2024-01-30T00:22:19;51.90;34.34;72.28;;
45651;Laerm;31365;48.858;8.530;2024-01-30T00:24:47;39.00;34.31;42.41;;
45651;Laerm;31365;48.858;8.530;2024-01-30T00:27:15;53.22;35.04;72.52;;
45651;Laerm;31365;48.858;8.530;2024-01-30T00:29:44;54.63;35.36;74.29;;
45651;Laerm;31365;48.858;8.530;2024-01-30T00:32:12;39.50;35.36;44.15;;
45651;Laerm;31365;48.858;8.530;2024-01-30T00:34:41;38.95;33.44;42.64;;
45651;Laerm;31365;48.858;8.530;2024-01-30T00:37:12;39.04;33.44;41.75;;
45651;Laerm;31365;48.858;8.530;2024-01-30T00:39:40;39.03;33.44;41.46;;
45651;Laerm;31365;48.858;8.530;2024-01-30T00:42:08;39.28;33.44;42.98;;
45651;Laerm;31365;48.858;8.530;2024-01-30T00:44:37;39.54;34.31;42.06;;
45651;Laerm;31365;48.858;8.530;2024-01-30T00:47:06;39.77;34.31;43.94;;
45651;Laerm;31365;48.858;8.530;2024-01-30T00:49:34;39.05;33.44;41.75;;
45651;Laerm;31365;48.858;8.530;2024-01-30T00:52:03;39.14;34.31;41.61;;
45651;Laerm;31365;48.858;8.530;2024-01-30T00:54:33;38.99;33.90;43.63;;
45651;Laerm;31365;48.858;8.530;2024-01-30T00:57:01;38.99;33.90;41.89;;
45651;Laerm;31365;48.858;8.530;2024-01-30T00:59:30;39.32;31.68;43.19;;
45651;Laerm;31365;48.858;8.530;2024-01-30T01:01:58;39.45;33.90;43.44;;
45651;Laerm;31365;48.858;8.530;2024-01-30T01:04:27;38.90;33.90;41.82;;
45651;Laerm;31365;48.858;8.530;2024-01-30T01:06:56;38.77;33.44;41.75;;
45651;Laerm;31365;48.858;8.530;2024-01-30T01:09:25;38.84;33.44;43.39;;
45651;Laerm;31365;48.858;8.530;2024-01-30T01:11:55;39.04;34.31;43.63;;
45651;Laerm;31365;48.858;8.530;2024-01-30T01:14:24;38.84;32.93;42.98;;
45651;Laerm;31365;48.858;8.530;2024-01-30T01:16:52;38.92;31.33;43.09;;
45651;Laerm;31365;48.858;8.530;2024-01-30T01:19:20;38.91;33.55;43.72;;
45651;Laerm;31365;48.858;8.530;2024-01-30T01:21:49;38.97;33.44;43.09;;
45651;Laerm;31365;48.858;8.530;2024-01-30T01:24:18;39.02;34.31;49.94;;
45651;Laerm;31365;48.858;8.530;2024-01-30T01:26:47;39.38;33.90;44.83;;
45651;Laerm;31365;48.858;8.530;2024-01-30T01:29:16;38.93;33.90;41.68;;
45651;Laerm;31365;48.858;8.530;2024-01-30T01:31:45;39.16;32.93;43.54;;
45651;Laerm;31365;48.858;8.530;2024-01-30T01:34:14;38.30;32.93;41.14;;
45651;Laerm;31365;48.858;8.530;2024-01-30T01:36:43;53.59;32.35;72.74;;
45651;Laerm;31365;48.858;8.530;2024-01-30T01:39:11;40.74;32.35;56.41;;
45651;Laerm;31365;48.858;8.530;2024-01-30T01:41:39;54.46;32.93;75.43;;
45651;Laerm;31365;48.858;8.530;2024-01-30T01:44:08;51.55;33.90;68.91;;
45651;Laerm;31365;48.858;8.530;2024-01-30T01:46:38;38.57;32.93;43.63;;
45651;Laerm;31365;48.858;8.530;2024-01-30T01:49:07;38.68;32.93;41.46;;
45651;Laerm;31365;48.858;8.530;2024-01-30T01:51:38;38.96;32.35;42.76;;
45651;Laerm;31365;48.858;8.530;2024-01-30T01:54:08;39.25;34.31;41.75;;
45651;Laerm;31365;48.858;8.530;2024-01-30T01:56:37;39.14;34.69;41.53;;
45651;Laerm;31365;48.858;8.530;2024-01-30T01:59:07;39.23;33.90;43.44;;
45651;Laerm;31365;48.858;8.530;2024-01-30T02:01:38;39.94;35.01;44.54;;
45651;Laerm;31365;48.858;8.530;2024-01-30T02:04:08;51.05;34.69;69.64;;
45651;Laerm;31365;48.858;8.530;2024-01-30T02:06:37;54.55;35.66;74.39;;
45651;Laerm;31365;48.858;8.530;2024-01-30T02:09:06;39.46;34.69;43.34;;
45651;Laerm;31365;48.858;8.530;2024-01-30T02:11:36;39.77;34.69;49.28;;
45651;Laerm;31365;48.858;8.530;2024-01-30T02:14:05;39.63;33.44;43.28;;
45651;Laerm;31365;48.858;8.530;2024-01-30T02:16:33;62.38;36.45;83.25;;
45651;Laerm;31365;48.858;8.530;2024-01-30T02:19:03;41.90;37.32;45.42;;
45651;Laerm;31365;48.858;8.530;2024-01-30T02:21:34;39.84;35.66;43.86;;
45651;Laerm;31365;48.858;8.530;2024-01-30T02:24:03;39.06;33.90;41.75;;
45651;Laerm;31365;48.858;8.530;2024-01-30T02:26:32;39.12;34.31;41.53;;
45651;Laerm;31365;48.858;8.530;2024-01-30T02:29:01;39.01;33.90;44.43;;
45651;Laerm;31365;48.858;8.530;2024-01-30T02:31:29;39.14;34.31;43.77;;
45651;Laerm;31365;48.858;8.530;2024-01-30T02:33:57;39.08;34.69;41.38;;
45651;Laerm;31365;48.858;8.530;2024-01-30T02:36:26;40.03;34.69;48.98;;
45651;Laerm;31365;48.858;8.530;2024-01-30T02:38:56;54.02;36.91;74.92;;
45651;Laerm;31365;48.858;8.530;2024-01-30T02:41:24;39.23;32.93;42.03;;
45651;Laerm;31365;48.858;8.530;2024-01-30T02:43:53;39.15;34.31;43.04;;
45651;Laerm;31365;48.858;8.530;2024-01-30T02:46:22;40.41;35.66;45.36;;
45651;Laerm;31365;48.858;8.530;2024-01-30T02:48:50;42.37;34.69;59.08;;
45651;Laerm;31365;48.858;8.530;2024-01-30T02:51:18;47.66;36.45;63.38;;
45651;Laerm;31365;48.858;8.530;2024-01-30T02:53:47;48.23;35.36;65.23;;
45651;Laerm;31365;48.858;8.530;2024-01-30T02:56:17;42.14;35.04;63.27;;
45651;Laerm;31365;48.858;8.530;2024-01-30T02:58:45;39.54;33.90;41.96;;
45651;Laerm;31365;48.858;8.530;2024-01-30T03:01:13;58.06;34.69;79.20;;
45651;Laerm;31365;48.858;8.530;2024-01-30T03:03:42;39.83;34.69;43.44;;
45651;Laerm;31365;48.858;8.530;2024-01-30T03:06:10;41.26;35.94;55.72;;
45651;Laerm;31365;48.858;8.530;2024-01-30T03:08:39;65.00;37.32;83.61;;
45651;Laerm;31365;48.858;8.530;2024-01-30T03:11:08;44.25;35.36;63.73;;
45651;Laerm;31365;48.858;8.530;2024-01-30T03:13:38;63.59;36.69;82.85;;
45651;Laerm;31365;48.858;8.530;2024-01-30T03:16:08;56.44;35.66;77.87;;
45651;Laerm;31365;48.858;8.530;2024-01-30T03:18:37;40.02;36.20;42.90;;
45651;Laerm;31365;48.858;8.530;2024-01-30T03:21:06;53.20;35.04;72.68;;
45651;Laerm;31365;48.858;8.530;2024-01-30T03:23:34;40.95;36.20;49.30;;
45651;Laerm;31365;48.858;8.530;2024-01-30T03:26:03;40.61;36.20;43.14;;
45651;Laerm;31365;48.858;8.530;2024-01-30T03:28:33;39.80;35.36;45.80;;
45651;Laerm;31365;48.858;8.530;2024-01-30T03:31:03;53.64;35.94;73.47;;
45651;Laerm;31365;48.858;8.530;2024-01-30T03:33:32;40.58;35.04;56.52;;
45651;Laerm;31365;48.858;8.530;2024-01-30T03:36:04;56.42;38.21;82.80;;
45651;Laerm;31365;48.858;8.530;2024-01-30T03:38:32;57.65;35.94;75.69;;
45651;Laerm;31365;48.858;8.530;2024-01-30T03:41:01;41.48;35.36;54.94;;
45651;Laerm;31365;48.858;8.530;2024-01-30T03:43:29;45.48;35.04;60.35;;
45651;Laerm;31365;48.858;8.530;2024-01-30T03:45:57;40.84;36.20;44.43;;
45651;Laerm;31365;48.858;8.530;2024-01-30T03:48:28;54.68;35.66;79.71;;
45651;Laerm;31365;48.858;8.530;2024-01-30T03:50:58;51.55;36.45;70.26;;
45651;Laerm;31365;48.858;8.530;2024-01-30T03:53:27;60.32;35.94;80.29;;
45651;Laerm;31365;48.858;8.530;2024-01-30T03:55:56;40.36;35.94;44.27;;
45651;Laerm;31365;48.858;8.530;2024-01-30T03:58:24;40.15;35.04;43.49;;
45651;Laerm;31365;48.858;8.530;2024-01-30T04:00:53;62.35;36.91;82.55;;
45651;Laerm;31365;48.858;8.530;2024-01-30T04:03:22;52.88;35.94;71.42;;
45651;Laerm;31365;48.858;8.530;2024-01-30T04:05:52;52.71;35.66;72.47;;
45651;Laerm;31365;48.858;8.530;2024-01-30T04:08:21;60.36;36.69;81.23;;
45651;Laerm;31365;48.858;8.530;2024-01-30T04:10:50;54.91;35.94;75.11;;
45651;Laerm;31365;48.858;8.530;2024-01-30T04:13:18;60.74;37.88;81.19;;
45651;Laerm;31365;48.858;8.530;2024-01-30T04:15:47;54.40;36.45;70.85;;
45651;Laerm;31365;48.858;8.530;2024-01-30T04:18:15;60.34;38.81;76.91;;
45651;Laerm;31365;48.858;8.530;2024-01-30T04:20:45;53.91;37.52;71.74;;
45651;Laerm;31365;48.858;8.530;2024-01-30T04:23:15;59.43;38.52;76.25;;
45651;Laerm;31365;48.858;8.530;2024-01-30T04:25:43;61.66;40.08;77.59;;
45651;Laerm;31365;48.858;8.530;2024-01-30T04:28:12;49.95;37.70;68.00;;
45651;Laerm;31365;48.858;8.530;2024-01-30T04:30:41;59.44;38.05;76.19;;
45651;Laerm;31365;48.858;8.530;2024-01-30T04:33:10;61.57;37.17;78.60;;
45651;Laerm;31365;48.858;8.530;2024-01-30T04:35:39;62.24;39.21;79.90;;
45651;Laerm;31365;48.858;8.530;2024-01-30T04:38:07;61.40;38.02;78.70;;
45651;Laerm;31365;48.858;8.530;2024-01-30T04:40:37;61.11;39.34;77.09;;
45651;Laerm;31365;48.858;8.530;2024-01-30T04:43:06;58.04;38.21;76.23;;
45651;Laerm;31365;48.858;8.530;2024-01-30T04:45:35;60.97;38.05;80.90;;
45651;Laerm;31365;48.858;8.530;2024-01-30T04:48:04;59.62;38.95;76.87;;
45651;Laerm;31365;48.858;8.530;2024-01-30T04:50:33;61.37;41.06;78.53;;
45651;Laerm;31365;48.858;8.530;2024-01-30T04:53:01;68.85;39.81;95.47;;
45651;Laerm;31365;48.858;8.530;2024-01-30T04:55:30;62.74;37.88;78.84;;
45651;Laerm;31365;48.858;8.530;2024-01-30T04:58:00;61.04;40.43;75.49;;
45651;Laerm;31365;48.858;8.530;2024-01-30T05:00:28;61.29;39.58;79.42;;
45651;Laerm;31365;48.858;8.530;2024-01-30T05:02:57;61.11;38.37;82.94;;
45651;Laerm;31365;48.858;8.530;2024-01-30T05:05:25;61.78;41.53;77.99;;
45651;Laerm;31365;48.858;8.530;2024-01-30T05:10:22;60.91;41.53;76.95;;
45651;Laerm;31365;48.858;8.530;2024-01-30T05:12:50;59.18;39.81;76.97;;
45651;Laerm;31365;48.858;8.530;2024-01-30T05:15:20;64.36;41.38;80.18;;
45651;Laerm;31365;48.858;8.530;2024-01-30T05:17:49;62.19;40.43;76.80;;
45651;Laerm;31365;48.858;8.530;2024-01-30T05:20:19;63.48;39.34;78.56;;
45651;Laerm;31365;48.858;8.530;2024-01-30T05:22:48;63.26;41.06;78.32;;
45651;Laerm;31365;48.858;8.530;2024-01-30T05:25:16;63.71;40.43;81.68;;
45651;Laerm;31365;48.858;8.530;2024-01-30T05:27:45;64.25;39.70;79.33;;
45651;Laerm;31365;48.858;8.530;2024-01-30T05:30:14;65.31;43.33;79.62;;
45651;Laerm;31365;48.858;8.530;2024-01-30T05:32:44;60.80;40.89;76.93;;
45651;Laerm;31365;48.858;8.530;2024-01-30T05:35:13;65.20;43.63;77.59;;
45651;Laerm;31365;48.858;8.530;2024-01-30T05:37:41;64.69;43.14;79.97;;
45651;Laerm;31365;48.858;8.530;2024-01-30T05:40:11;63.62;40.62;80.56;;
45651;Laerm;31365;48.858;8.530;2024-01-30T05:42:39;61.32;40.45;77.84;;
45651;Laerm;31365;48.858;8.530;2024-01-30T05:45:08;63.98;41.38;78.59;;
45651;Laerm;31365;48.858;8.530;2024-01-30T05:47:36;65.07;42.35;77.56;;
45651;Laerm;31365;48.858;8.530;2024-01-30T05:50:08;63.85;42.35;79.02;;
45651;Laerm;31365;48.858;8.530;2024-01-30T05:52:36;63.47;43.77;77.09;;
45651;Laerm;31365;48.858;8.530;2024-01-30T05:55:05;65.57;43.34;78.85;;
45651;Laerm;31365;48.858;8.530;2024-01-30T05:57:33;62.40;42.16;78.45;;
45651;Laerm;31365;48.858;8.530;2024-01-30T06:00:02;66.07;43.14;80.40;;
45651;Laerm;31365;48.858;8.530;2024-01-30T06:02:32;65.70;44.80;81.59;;
45651;Laerm;31365;48.858;8.530;2024-01-30T06:05:01;63.00;42.13;76.75;;
45651;Laerm;31365;48.858;8.530;2024-01-30T06:07:31;65.27;42.22;80.39;;
45651;Laerm;31365;48.858;8.530;2024-01-30T06:10:04;64.03;41.68;78.93;;
45651;Laerm;31365;48.858;8.530;2024-01-30T06:12:33;64.12;43.34;77.95;;
45651;Laerm;31365;48.858;8.530;2024-01-30T06:15:01;66.37;43.90;77.35;;
45651;Laerm;31365;48.858;8.530;2024-01-30T06:17:29;66.09;48.32;78.36;;
45651;Laerm;31365;48.858;8.530;2024-01-30T06:19:58;65.20;43.90;78.42;;
45651;Laerm;31365;48.858;8.530;2024-01-30T06:22:26;64.19;41.96;79.71;;
45651;Laerm;31365;48.858;8.530;2024-01-30T06:24:56;64.99;43.58;80.63;;
45651;Laerm;31365;48.858;8.530;2024-01-30T06:27:25;65.52;43.14;78.72;;
45651;Laerm;31365;48.858;8.530;2024-01-30T06:29:53;63.60;42.76;77.69;;
45651;Laerm;31365;48.858;8.530;2024-01-30T06:32:22;63.92;41.53;78.48;;
45651;Laerm;31365;48.858;8.530;2024-01-30T06:34:50;66.07;45.14;78.23;;
45651;Laerm;31365;48.858;8.530;2024-01-30T06:37:19;65.93;45.86;77.98;;
45651;Laerm;31365;48.858;8.530;2024-01-30T06:39:49;64.32;42.09;78.49;;
45651;Laerm;31365;48.858;8.530;2024-01-30T06:42:19;65.95;43.44;78.66;;
45651;Laerm;31365;48.858;8.530;2024-01-30T06:44:47;64.30;44.11;80.26;;
45651;Laerm;31365;48.858;8.530;2024-01-30T06:47:16;61.31;40.80;76.04;;
45651;Laerm;31365;48.858;8.530;2024-01-30T06:49:43;66.20;43.09;79.35;;
45651;Laerm;31365;48.858;8.530;2024-01-30T06:52:12;64.66;44.15;78.18;;
45651;Laerm;31365;48.858;8.530;2024-01-30T06:54:41;65.66;44.07;77.71;;
45651;Laerm;31365;48.858;8.530;2024-01-30T06:57:09;57.99;40.53;71.53;;
45651;Laerm;31365;48.858;8.530;2024-01-30T06:59:40;62.76;42.93;75.75;;
45651;Laerm;31365;48.858;8.530;2024-01-30T07:02:10;64.10;44.58;75.93;;
45651;Laerm;31365;48.858;8.530;2024-01-30T07:04:39;62.74;42.41;79.74;;
45651;Laerm;31365;48.858;8.530;2024-01-30T07:07:13;62.94;41.82;79.11;;
45651;Laerm;31365;48.858;8.530;2024-01-30T07:09:42;66.71;44.31;84.01;;
45651;Laerm;31365;48.858;8.530;2024-01-30T07:12:11;65.20;44.90;78.38;;
45651;Laerm;31365;48.858;8.530;2024-01-30T07:14:41;64.27;41.94;78.24;;
45651;Laerm;31365;48.858;8.530;2024-01-30T07:17:09;63.68;42.82;80.70;;
45651;Laerm;31365;48.858;8.530;2024-01-30T07:19:38;62.61;40.80;79.33;;
45651;Laerm;31365;48.858;8.530;2024-01-30T07:22:06;61.02;42.03;77.74;;
45651;Laerm;31365;48.858;8.530;2024-01-30T07:24:34;66.22;42.41;85.41;;
45651;Laerm;31365;48.858;8.530;2024-01-30T07:27:03;63.25;41.75;78.05;;
45651;Laerm;31365;48.858;8.530;2024-01-30T07:29:32;62.43;41.22;82.11;;
45651;Laerm;31365;48.858;8.530;2024-01-30T07:32:01;64.70;42.03;79.20;;
45651;Laerm;31365;48.858;8.530;2024-01-30T07:34:30;79.55;43.29;100.94;;
45651;Laerm;31365;48.858;8.530;2024-01-30T07:37:07;62.52;40.98;79.48;;
45651;Laerm;31365;48.858;8.530;2024-01-30T07:39:37;63.97;44.54;79.62;;
45651;Laerm;31365;48.858;8.530;2024-01-30T07:42:05;64.87;41.75;78.34;;
45651;Laerm;31365;48.858;8.530;2024-01-30T07:44:34;63.76;43.24;77.20;;
45651;Laerm;31365;48.858;8.530;2024-01-30T07:47:05;61.96;40.71;77.39;;
45651;Laerm;31365;48.858;8.530;2024-01-30T07:49:34;66.79;41.53;85.24;;
45651;Laerm;31365;48.858;8.530;2024-01-30T07:52:04;63.27;40.98;78.63;;
45651;Laerm;31365;48.858;8.530;2024-01-30T07:54:33;63.07;41.38;77.11;;
45651;Laerm;31365;48.858;8.530;2024-01-30T07:57:02;64.47;42.22;80.07;;
45651;Laerm;31365;48.858;8.530;2024-01-30T07:59:31;63.56;43.14;79.40;;
45651;Laerm;31365;48.858;8.530;2024-01-30T08:01:59;63.80;41.68;78.88;;
45651;Laerm;31365;48.858;8.530;2024-01-30T08:04:29;61.80;42.22;76.63;;
45651;Laerm;31365;48.858;8.530;2024-01-30T08:06:57;54.24;42.35;71.32;;
45651;Laerm;31365;48.858;8.530;2024-01-30T08:09:26;61.95;42.41;77.14;;
45651;Laerm;31365;48.858;8.530;2024-01-30T08:11:55;63.19;46.80;79.10;;
45651;Laerm;31365;48.858;8.530;2024-01-30T08:14:24;61.33;41.55;75.78;;
45651;Laerm;31365;48.858;8.530;2024-01-30T08:16:52;65.10;44.15;80.84;;
45651;Laerm;31365;48.858;8.530;2024-01-30T08:19:21;60.78;39.08;74.74;;
45651;Laerm;31365;48.858;8.530;2024-01-30T08:21:51;59.25;39.92;75.25;;
45651;Laerm;31365;48.858;8.530;2024-01-30T08:24:19;65.83;41.46;89.86;;
45651;Laerm;31365;48.858;8.530;2024-01-30T08:26:47;61.73;40.71;78.36;;
45651;Laerm;31365;48.858;8.530;2024-01-30T08:29:15;62.85;41.14;78.04;;
45651;Laerm;31365;48.858;8.530;2024-01-30T08:34:13;63.90;42.98;78.13;;
45651;Laerm;31365;48.858;8.530;2024-01-30T08:36:41;64.00;42.65;77.88;;
45651;Laerm;31365;48.858;8.530;2024-01-30T08:39:11;63.65;41.38;77.84;;
45651;Laerm;31365;48.858;8.530;2024-01-30T08:41:40;60.61;40.23;77.02;;
45651;Laerm;31365;48.858;8.530;2024-01-30T08:44:08;61.92;41.89;78.29;;
45651;Laerm;31365;48.858;8.530;2024-01-30T08:46:38;62.18;41.75;78.59;;
45651;Laerm;31365;48.858;8.530;2024-01-30T08:49:07;63.88;41.14;78.63;;
45651;Laerm;31365;48.858;8.530;2024-01-30T08:51:35;61.30;40.43;76.59;;
45651;Laerm;31365;48.858;8.530;2024-01-30T08:54:04;59.83;41.06;75.06;;
45651;Laerm;31365;48.858;8.530;2024-01-30T08:56:34;64.00;44.73;77.57;;
45651;Laerm;31365;48.858;8.530;2024-01-30T08:59:02;67.83;42.76;87.26;;
45651;Laerm;31365;48.858;8.530;2024-01-30T09:01:30;63.82;39.70;83.99;;
45651;Laerm;31365;48.858;8.530;2024-01-30T09:03:59;63.40;41.14;80.90;;
45651;Laerm;31365;48.858;8.530;2024-01-30T09:06:27;62.42;40.53;77.35;;
45651;Laerm;31365;48.858;8.530;2024-01-30T09:08:56;66.24;43.04;84.79;;
45651;Laerm;31365;48.858;8.530;2024-01-30T09:11:25;61.70;39.34;77.07;;
45651;Laerm;31365;48.858;8.530;2024-01-30T09:13:54;59.72;40.23;76.81;;
45651;Laerm;31365;48.858;8.530;2024-01-30T09:16:23;62.64;40.43;78.04;;
45651;Laerm;31365;48.858;8.530;2024-01-30T09:18:51;65.04;46.91;82.70;;
45651;Laerm;31365;48.858;8.530;2024-01-30T09:21:20;61.12;45.83;82.06;;
45651;Laerm;31365;48.858;8.530;2024-01-30T09:23:48;60.08;45.97;75.68;;
45651;Laerm;31365;48.858;8.530;2024-01-30T09:26:17;61.10;45.17;76.84;;
45651;Laerm;31365;48.858;8.530;2024-01-30T09:28:45;63.33;45.33;77.86;;
45651;Laerm;31365;48.858;8.530;2024-01-30T09:31:15;61.66;44.19;79.98;;
45651;Laerm;31365;48.858;8.530;2024-01-30T09:33:46;61.79;42.41;78.07;;
45651;Laerm;31365;48.858;8.530;2024-01-30T09:36:15;64.29;43.34;77.16;;
45651;Laerm;31365;48.858;8.530;2024-01-30T09:38:45;63.15;41.38;79.99;;
45651;Laerm;31365;48.858;8.530;2024-01-30T09:41:14;62.11;42.29;77.71;;
45651;Laerm;31365;48.858;8.530;2024-01-30T09:43:48;61.93;41.46;77.70;;
45651;Laerm;31365;48.858;8.530;2024-01-30T09:46:21;63.31;41.68;77.15;;
45651;Laerm;31365;48.858;8.530;2024-01-30T09:48:52;62.00;42.88;77.50;;
45651;Laerm;31365;48.858;8.530;2024-01-30T09:51:22;64.10;40.33;84.36;;
45651;Laerm;31365;48.858;8.530;2024-01-30T09:53:50;67.08;41.68;88.72;;
45651;Laerm;31365;48.858;8.530;2024-01-30T09:56:19;64.46;41.14;81.09;;
45651;Laerm;31365;48.858;8.530;2024-01-30T09:58:49;64.63;41.89;78.27;;
45651;Laerm;31365;48.858;8.530;2024-01-30T10:01:19;64.71;40.89;88.09;;
45651;Laerm;31365;48.858;8.530;2024-01-30T10:03:51;62.90;41.38;80.63;;
45651;Laerm;31365;48.858;8.530;2024-01-30T10:06:21;55.91;39.34;71.80;;
45651;Laerm;31365;48.858;8.530;2024-01-30T10:08:51;61.68;41.96;76.75;;
45651;Laerm;31365;48.858;8.530;2024-01-30T10:11:19;62.65;39.70;77.77;;
45651;Laerm;31365;48.858;8.530;2024-01-30T10:13:49;62.06;39.21;77.56;;
45651;Laerm;31365;48.858;8.530;2024-01-30T10:16:19;64.00;40.80;82.59;;
45651;Laerm;31365;48.858;8.530;2024-01-30T10:18:48;59.58;38.95;74.89;;
45651;Laerm;31365;48.858;8.530;2024-01-30T10:21:16;61.83;40.43;76.85;;
45651;Laerm;31365;48.858;8.530;2024-01-30T10:23:45;58.87;38.95;75.04;;
45651;Laerm;31365;48.858;8.530;2024-01-30T10:26:16;59.93;39.21;75.36;;
45651;Laerm;31365;48.858;8.530;2024-01-30T10:28:44;60.27;40.36;76.63;;
45651;Laerm;31365;48.858;8.530;2024-01-30T10:31:18;59.63;39.21;78.44;;
45651;Laerm;31365;48.858;8.530;2024-01-30T10:33:47;63.09;39.58;80.64;;
45651;Laerm;31365;48.858;8.530;2024-01-30T10:36:17;62.28;42.82;76.69;;
45651;Laerm;31365;48.858;8.530;2024-01-30T10:38:51;61.08;40.03;75.55;;
45651;Laerm;31365;48.858;8.530;2024-01-30T10:41:26;62.23;41.53;78.93;;
45651;Laerm;31365;48.858;8.530;2024-01-30T10:44:02;61.85;44.11;72.75;;
45651;Laerm;31365;48.858;8.530;2024-01-30T10:49:04;63.03;47.77;78.52;;
45651;Laerm;31365;48.858;8.530;2024-01-30T10:51:35;60.64;46.73;78.08;;
45651;Laerm;31365;48.858;8.530;2024-01-30T10:54:06;62.81;46.38;77.54;;
45651;Laerm;31365;48.858;8.530;2024-01-30T10:56:35;66.11;46.59;83.38;;
45651;Laerm;31365;48.858;8.530;2024-01-30T10:59:05;62.97;46.66;74.21;;
45651;Laerm;31365;48.858;8.530;2024-01-30T11:01:39;63.17;46.45;78.41;;
45651;Laerm;31365;48.858;8.530;2024-01-30T11:04:09;62.42;46.15;75.75;;
45651;Laerm;31365;48.858;8.530;2024-01-30T11:06:41;62.51;46.78;75.35;;
45651;Laerm;31365;48.858;8.530;2024-01-30T11:09:11;63.66;45.57;78.21;;
45651;Laerm;31365;48.858;8.530;2024-01-30T11:11:51;62.99;43.29;79.89;;
45651;Laerm;31365;48.858;8.530;2024-01-30T11:14:26;62.85;42.98;77.54;;
45651;Laerm;31365;48.858;8.530;2024-01-30T11:16:59;60.21;42.65;75.14;;
45651;Laerm;31365;48.858;8.530;2024-01-30T11:19:31;62.72;42.09;76.86;;
45651;Laerm;31365;48.858;8.530;2024-01-30T11:22:00;63.91;39.58;78.33;;
45651;Laerm;31365;48.858;8.530;2024-01-30T11:24:29;66.87;38.37;87.74;;
45651;Laerm;31365;48.858;8.530;2024-01-30T11:26:58;62.69;44.11;76.47;;
45651;Laerm;31365;48.858;8.530;2024-01-30T11:31:58;64.49;42.47;79.45;;
45651;Laerm;31365;48.858;8.530;2024-01-30T11:34:27;63.93;38.67;82.28;;
45651;Laerm;31365;48.858;8.530;2024-01-30T11:36:57;64.63;43.99;77.30;;
45651;Laerm;31365;48.858;8.530;2024-01-30T11:39:27;65.17;41.22;85.44;;
45651;Laerm;31365;48.858;8.530;2024-01-30T11:41:58;61.60;41.22;78.86;;
45651;Laerm;31365;48.858;8.530;2024-01-30T11:44:26;62.24;38.81;77.43;;
45651;Laerm;31365;48.858;8.530;2024-01-30T11:46:55;60.09;38.67;76.58;;
45651;Laerm;31365;48.858;8.530;2024-01-30T11:49:25;67.07;41.61;84.73;;
45651;Laerm;31365;48.858;8.530;2024-01-30T11:51:54;59.29;40.33;78.02;;
45651;Laerm;31365;48.858;8.530;2024-01-30T11:54:23;61.87;40.13;73.81;;
45651;Laerm;31365;48.858;8.530;2024-01-30T11:56:51;59.79;38.95;74.72;;
45651;Laerm;31365;48.858;8.530;2024-01-30T12:01:48;59.61;38.52;75.94;;
45651;Laerm;31365;48.858;8.530;2024-01-30T12:04:16;60.15;41.38;75.64;;
45651;Laerm;31365;48.858;8.530;2024-01-30T12:06:51;61.99;42.22;75.76;;
45651;Laerm;31365;48.858;8.530;2024-01-30T12:09:19;60.51;39.08;74.40;;
45651;Laerm;31365;48.858;8.530;2024-01-30T12:11:49;61.77;38.81;74.88;;
45651;Laerm;31365;48.858;8.530;2024-01-30T12:14:19;62.50;41.68;75.39;;
45651;Laerm;31365;48.858;8.530;2024-01-30T12:16:49;62.69;41.82;75.41;;
45651;Laerm;31365;48.858;8.530;2024-01-30T12:19:24;61.96;41.89;75.65;;
45651;Laerm;31365;48.858;8.530;2024-01-30T12:21:58;60.74;39.46;75.41;;
45651;Laerm;31365;48.858;8.530;2024-01-30T12:24:27;55.79;38.21;70.42;;
45651;Laerm;31365;48.858;8.530;2024-01-30T12:26:58;61.01;42.09;74.75;;
45651;Laerm;31365;48.858;8.530;2024-01-30T12:29:27;64.21;40.98;86.58;;
45651;Laerm;31365;48.858;8.530;2024-01-30T12:32:02;61.79;40.53;75.48;;
45651;Laerm;31365;48.858;8.530;2024-01-30T12:34:30;60.00;40.89;75.51;;
45651;Laerm;31365;48.858;8.530;2024-01-30T12:37:13;63.87;42.65;81.21;;
45651;Laerm;31365;48.858;8.530;2024-01-30T12:39:46;62.21;42.29;74.93;;
45651;Laerm;31365;48.858;8.530;2024-01-30T12:42:15;62.70;41.22;74.86;;
45651;Laerm;31365;48.858;8.530;2024-01-30T12:44:43;60.39;39.08;76.30;;
45651;Laerm;31365;48.858;8.530;2024-01-30T12:47:12;60.33;42.29;86.07;;
45651;Laerm;31365;48.858;8.530;2024-01-30T12:49:40;61.35;43.19;79.59;;
45651;Laerm;31365;48.858;8.530;2024-01-30T12:52:09;59.33;38.95;75.43;;
45651;Laerm;31365;48.858;8.530;2024-01-30T12:54:39;64.18;41.30;77.73;;
45651;Laerm;31365;48.858;8.530;2024-01-30T12:57:07;62.62;43.39;76.92;;
45651;Laerm;31365;48.858;8.530;2024-01-30T12:59:35;62.65;40.13;75.79;;
45651;Laerm;31365;48.858;8.530;2024-01-30T13:02:04;63.93;43.49;79.54;;
45651;Laerm;31365;48.858;8.530;2024-01-30T13:04:33;67.58;40.88;87.65;;
45651;Laerm;31365;48.858;8.530;2024-01-30T13:07:02;63.63;43.19;76.41;;
45651;Laerm;31365;48.858;8.530;2024-01-30T13:12:01;60.22;38.95;76.38;;
45651;Laerm;31365;48.858;8.530;2024-01-30T13:14:30;62.05;39.58;82.19;;
45651;Laerm;31365;48.858;8.530;2024-01-30T13:16:58;64.28;41.06;79.66;;
45651;Laerm;31365;48.858;8.530;2024-01-30T13:19:26;59.44;39.08;74.42;;
45651;Laerm;31365;48.858;8.530;2024-01-30T13:21:55;65.27;42.53;80.54;;
45651;Laerm;31365;48.858;8.530;2024-01-30T13:24:24;64.60;43.14;79.63;;
45651;Laerm;31365;48.858;8.530;2024-01-30T13:26:52;62.55;42.93;76.12;;
45651;Laerm;31365;48.858;8.530;2024-01-30T13:29:22;63.27;41.68;76.13;;
45651;Laerm;31365;48.858;8.530;2024-01-30T13:31:51;63.62;41.30;76.77;;
45651;Laerm;31365;48.858;8.530;2024-01-30T13:34:19;63.13;42.93;79.89;;
45651;Laerm;31365;48.858;8.530;2024-01-30T13:36:48;63.25;41.61;79.85;;
45651;Laerm;31365;48.858;8.530;2024-01-30T13:39:17;61.68;40.62;78.58;;
45651;Laerm;31365;48.858;8.530;2024-01-30T13:41:49;62.50;42.59;79.44;;
45651;Laerm;31365;48.858;8.530;2024-01-30T13:44:17;64.35;42.95;81.13;;
45651;Laerm;31365;48.858;8.530;2024-01-30T13:46:49;65.28;42.65;81.10;;
45651;Laerm;31365;48.858;8.530;2024-01-30T13:49:18;63.14;43.34;76.50;;
45651;Laerm;31365;48.858;8.530;2024-01-30T13:51:47;61.59;41.06;76.09;;
45651;Laerm;31365;48.858;8.530;2024-01-30T13:54:15;62.90;43.63;76.75;;
45651;Laerm;31365;48.858;8.530;2024-01-30T13:56:44;66.29;43.34;78.85;;
45651;Laerm;31365;48.858;8.530;2024-01-30T13:59:12;61.14;40.43;80.78;;
45651;Laerm;31365;48.858;8.530;2024-01-30T14:01:40;61.48;43.90;75.40;;
45651;Laerm;31365;48.858;8.530;2024-01-30T14:04:10;60.73;43.33;76.48;;
45651;Laerm;31365;48.858;8.530;2024-01-30T14:06:42;61.81;40.03;74.83;;
45651;Laerm;31365;48.858;8.530;2024-01-30T14:09:23;63.31;41.89;77.83;;
45651;Laerm;31365;48.858;8.530;2024-01-30T14:11:51;58.58;41.68;75.52;;